createdAt,value
2023-05-19T00:01:00.474Z,67.03
2023-05-19T00:03:28.212Z,67.70
2023-05-19T00:05:57.107Z,66.93
2023-05-19T00:08:24.759Z,67.02
2023-05-19T00:10:52.190Z,67.51
2023-05-19T00:13:19.534Z,67.63
2023-05-19T00:15:46.960Z,67.39
2023-05-19T00:18:14.483Z,67.42
2023-05-19T00:20:41.720Z,67.76
2023-05-19T00:23:08.953Z,67.79
2023-05-19T00:25:36.127Z,67.92
2023-05-19T00:28:03.557Z,68.22
2023-05-19T00:30:31.633Z,68.22
2023-05-19T00:32:58.879Z,67.89
2023-05-19T00:35:26.081Z,67.88
2023-05-19T00:37:53.615Z,68.24
2023-05-19T00:40:21.219Z,68.15
2023-05-19T00:42:48.446Z,68.02
2023-05-19T00:45:15.578Z,68.00
2023-05-19T00:47:42.923Z,67.88
2023-05-19T00:50:10.447Z,68.28
2023-05-19T00:52:37.663Z,68.76
2023-05-19T00:55:05.633Z,68.79
2023-05-19T00:57:32.802Z,68.42
2023-05-19T01:00:00.919Z,68.18
2023-05-19T01:02:29.763Z,68.63
2023-05-19T01:04:57.421Z,68.27
2023-05-19T01:11:43.024Z,68.30
2023-05-19T01:14:10.352Z,69.13
2023-05-19T01:16:42.737Z,69.16
2023-05-19T01:19:41.150Z,68.75
2023-05-19T01:22:14.318Z,69.16
2023-05-19T01:24:47.356Z,69.52
2023-05-19T01:27:23.711Z,69.87
2023-05-19T01:29:50.861Z,69.70
2023-05-19T01:32:19.896Z,69.47
2023-05-19T01:34:49.724Z,69.20
2023-05-19T01:37:17.472Z,69.83
2023-05-19T01:39:45.704Z,69.71
2023-05-19T01:42:13.409Z,69.37
2023-05-19T01:44:40.671Z,69.29
2023-05-19T01:47:34.231Z,69.61
2023-05-19T01:50:01.483Z,70.20
2023-05-19T01:52:28.682Z,70.03
2023-05-19T01:54:56.064Z,70.15
2023-05-19T01:58:05.644Z,70.49
2023-05-19T02:00:59.507Z,70.20
2023-05-19T02:03:32.862Z,69.79
2023-05-19T02:06:31.270Z,69.92
2023-05-19T02:09:04.551Z,70.88
2023-05-19T02:11:40.579Z,70.69
2023-05-19T02:14:16.330Z,70.77
2023-05-19T02:20:25.054Z,71.55
2023-05-19T02:22:52.326Z,71.40
2023-05-19T02:25:19.518Z,71.21
2023-05-19T02:27:46.984Z,71.44
2023-05-19T02:30:14.239Z,71.58
2023-05-19T02:32:41.503Z,71.89
2023-05-19T02:35:09.116Z,72.23
2023-05-19T02:37:36.346Z,71.80
2023-05-19T02:40:04.309Z,72.10
2023-05-19T02:42:31.773Z,72.03
2023-05-19T02:45:00.454Z,72.41
2023-05-19T02:47:27.739Z,72.38
2023-05-19T02:49:55.081Z,72.64
2023-05-19T02:52:22.364Z,72.27
2023-05-19T02:54:49.586Z,72.45
2023-05-19T02:57:16.984Z,72.15
2023-05-19T02:59:44.469Z,72.02
2023-05-19T03:02:11.877Z,72.18
2023-05-19T03:04:42.044Z,72.53
2023-05-19T03:07:10.291Z,72.20
2023-05-19T03:09:37.873Z,71.77
2023-05-19T03:12:07.218Z,71.93
2023-05-19T03:14:37.752Z,71.81
2023-05-19T03:17:08.388Z,71.90
2023-05-19T03:19:36.141Z,71.99
2023-05-19T03:22:03.450Z,71.77
2023-05-19T03:24:30.864Z,72.11
2023-05-19T03:26:58.114Z,72.10
2023-05-19T03:29:25.405Z,72.34
2023-05-19T03:31:52.618Z,72.40
2023-05-19T03:34:19.818Z,73.00
2023-05-19T03:36:48.997Z,72.58
2023-05-19T03:39:16.857Z,71.96
2023-05-19T03:41:44.083Z,72.11
2023-05-19T03:44:11.319Z,72.59
2023-05-19T03:46:38.530Z,72.35
2023-05-19T03:49:05.744Z,72.80
2023-05-19T03:51:34.861Z,72.57
2023-05-19T03:54:02.243Z,72.55
2023-05-19T03:56:29.905Z,72.30
2023-05-19T03:58:57.072Z,72.35
2023-05-19T04:01:24.414Z,71.95
2023-05-19T04:03:51.638Z,72.11
2023-05-19T04:06:19.111Z,71.97
2023-05-19T04:08:46.387Z,72.14
2023-05-19T04:11:13.689Z,72.08
2023-05-19T04:13:40.955Z,72.14
2023-05-19T04:16:08.279Z,72.05
2023-05-19T04:18:35.600Z,71.30
2023-05-19T04:21:02.968Z,71.42
2023-05-19T04:23:30.129Z,71.44
2023-05-19T04:25:59.014Z,71.17
2023-05-19T04:28:26.240Z,71.32
2023-05-19T04:30:53.631Z,71.20
2023-05-19T04:33:21.457Z,70.87
2023-05-19T04:35:50.317Z,70.04
2023-05-19T04:38:18.994Z,70.30
2023-05-19T04:40:46.407Z,70.37
2023-05-19T04:43:13.703Z,70.52
2023-05-19T04:45:42.639Z,70.55
2023-05-19T04:48:09.925Z,69.77
2023-05-19T04:50:38.583Z,70.01
2023-05-19T04:53:05.821Z,69.55
2023-05-19T04:55:33.099Z,69.15
2023-05-19T04:58:00.367Z,69.26
2023-05-19T05:00:28.459Z,69.50
2023-05-19T05:02:57.682Z,68.90
2023-05-19T05:05:25.013Z,69.04
2023-05-19T05:07:54.195Z,68.50
2023-05-19T05:10:21.884Z,68.69
2023-05-19T05:12:49.600Z,68.24
2023-05-19T05:15:17.391Z,67.65
2023-05-19T05:17:45.181Z,67.71
2023-05-19T05:20:13.119Z,66.94
2023-05-19T05:22:40.934Z,67.19
2023-05-19T05:25:08.965Z,66.87
2023-05-19T05:27:36.625Z,66.58
2023-05-19T05:30:04.930Z,66.47
2023-05-19T05:32:32.317Z,66.36
2023-05-19T05:34:59.690Z,66.19
2023-05-19T05:37:26.965Z,66.24
2023-05-19T05:39:54.163Z,65.88
2023-05-19T05:42:21.424Z,65.78
2023-05-19T05:44:48.645Z,65.63
2023-05-19T05:47:16.103Z,65.50
2023-05-19T05:49:43.971Z,65.27
2023-05-19T05:52:12.694Z,64.89
2023-05-19T05:54:40.199Z,64.63
2023-05-19T05:57:07.909Z,64.42
2023-05-19T05:59:35.147Z,63.89
2023-05-19T06:02:02.658Z,63.62
2023-05-19T06:04:30.017Z,63.30
2023-05-19T06:07:01.022Z,63.18
2023-05-19T06:09:29.852Z,62.78
2023-05-19T06:11:58.377Z,62.43
2023-05-19T06:14:25.704Z,62.26
2023-05-19T06:16:53.234Z,61.98
2023-05-19T06:19:21.261Z,61.29
2023-05-19T06:21:48.621Z,60.64
2023-05-19T06:24:15.846Z,60.25
2023-05-19T06:26:43.066Z,60.43
2023-05-19T06:29:10.411Z,59.89
2023-05-19T06:31:37.672Z,59.29
2023-05-19T06:34:05.254Z,58.94
2023-05-19T06:36:33.206Z,58.93
2023-05-19T06:39:02.598Z,58.89
2023-05-19T06:41:30.269Z,58.65
2023-05-19T06:43:57.511Z,58.36
2023-05-19T06:46:24.771Z,58.53
2023-05-19T06:48:52.033Z,58.33
2023-05-19T06:51:21.769Z,58.42
2023-05-19T06:53:49.336Z,58.66
2023-05-19T06:56:16.723Z,58.51
2023-05-19T06:58:44.139Z,58.22
2023-05-19T07:01:11.423Z,58.17
2023-05-19T07:03:38.753Z,58.11
2023-05-19T07:06:08.102Z,57.82
2023-05-19T07:08:37.144Z,57.98
2023-05-19T07:11:04.543Z,57.74
2023-05-19T07:13:32.931Z,58.00
2023-05-19T07:16:00.277Z,57.87
2023-05-19T07:18:29.980Z,57.80
2023-05-19T07:20:58.353Z,57.59
2023-05-19T07:23:25.665Z,57.36
2023-05-19T07:25:56.503Z,56.80
2023-05-19T07:28:23.801Z,56.50
2023-05-19T07:30:51.920Z,55.78
2023-05-19T07:33:19.116Z,55.30
2023-05-19T07:35:46.437Z,55.00
2023-05-19T07:38:13.777Z,54.19
2023-05-19T07:40:41.059Z,53.47
2023-05-19T07:43:08.320Z,52.97
2023-05-19T07:45:35.523Z,52.73
2023-05-19T07:48:03.105Z,52.38
2023-05-19T07:50:30.441Z,51.77
2023-05-19T07:52:57.748Z,51.39
2023-05-19T07:55:24.920Z,50.62
2023-05-19T07:57:52.144Z,50.07
2023-05-19T08:00:19.550Z,49.87
2023-05-19T08:02:47.329Z,49.55
2023-05-19T08:05:14.985Z,48.85
2023-05-19T08:07:42.298Z,48.33
2023-05-19T08:10:09.525Z,48.38
2023-05-19T08:12:36.834Z,47.87
2023-05-19T08:15:04.485Z,47.89
2023-05-19T08:17:31.716Z,47.39
2023-05-19T08:20:00.358Z,47.60
2023-05-19T08:22:28.156Z,47.50
2023-05-19T08:24:55.569Z,47.28
2023-05-19T08:27:22.836Z,46.45
2023-05-19T08:29:49.990Z,45.89
2023-05-19T08:32:17.529Z,45.79
2023-05-19T08:34:44.724Z,45.35
2023-05-19T08:37:12.302Z,44.93
2023-05-19T08:39:39.643Z,44.22
2023-05-19T08:42:08.160Z,43.64
2023-05-19T08:44:36.512Z,43.10
2023-05-19T08:47:12.614Z,42.08
2023-05-19T08:49:47.194Z,41.87
2023-05-19T08:52:17.336Z,41.21
2023-05-19T08:55:06.165Z,40.30
2023-05-19T08:57:34.222Z,39.40
2023-05-19T09:00:03.161Z,39.35
2023-05-19T09:02:30.920Z,38.19
2023-05-19T09:04:58.522Z,37.15
2023-05-19T09:07:26.320Z,37.27
2023-05-19T09:09:53.631Z,38.14
2023-05-19T09:12:21.102Z,37.80
2023-05-19T09:14:48.700Z,38.26
2023-05-19T09:17:16.072Z,38.03
2023-05-19T09:19:44.395Z,37.79
2023-05-19T09:22:11.692Z,37.89
2023-05-19T09:24:40.390Z,37.40
2023-05-19T09:27:07.937Z,37.09
2023-05-19T09:29:35.208Z,36.35
2023-05-19T09:32:05.177Z,36.53
2023-05-19T09:34:32.471Z,36.25
2023-05-19T09:36:59.919Z,36.01
2023-05-19T09:39:28.770Z,36.65
2023-05-19T09:41:58.493Z,36.72
2023-05-19T09:44:30.440Z,36.62
2023-05-19T09:46:58.528Z,35.79
2023-05-19T09:49:31.237Z,36.15
2023-05-19T09:52:00.320Z,35.45
2023-05-19T09:54:28.448Z,34.52
2023-05-19T09:57:03.785Z,35.04
2023-05-19T09:59:33.326Z,35.07
2023-05-19T10:02:01.564Z,34.32
2023-05-19T10:04:29.784Z,34.02
2023-05-19T10:07:01.363Z,34.01
2023-05-19T10:09:29.946Z,34.02
2023-05-19T10:11:58.777Z,33.63
2023-05-19T10:14:27.400Z,33.51
2023-05-19T10:16:56.386Z,33.91
2023-05-19T10:19:25.444Z,33.29
2023-05-19T10:21:53.379Z,33.48
2023-05-19T10:24:21.396Z,33.24
2023-05-19T10:26:56.923Z,33.34
2023-05-19T10:29:29.084Z,31.50
2023-05-19T10:32:01.100Z,31.46
2023-05-19T10:34:50.534Z,31.71
2023-05-19T10:37:31.276Z,31.84
2023-05-19T10:39:58.921Z,31.98
2023-05-19T10:42:44.186Z,32.32
2023-05-19T10:45:22.685Z,32.60
2023-05-19T10:47:51.466Z,32.51
2023-05-19T10:50:18.850Z,32.35
2023-05-19T10:52:53.255Z,31.91
2023-05-19T10:55:47.664Z,32.00
2023-05-19T10:58:14.885Z,31.06
2023-05-19T11:00:42.083Z,31.62
2023-05-19T11:03:59.416Z,31.33
2023-05-19T11:06:27.440Z,30.71
2023-05-19T11:09:00.915Z,31.00
2023-05-19T11:11:48.239Z,30.60
2023-05-19T11:14:20.606Z,30.70
2023-05-19T11:16:49.456Z,30.41
2023-05-19T11:23:38.767Z,31.00
2023-05-19T11:26:07.972Z,30.94
2023-05-19T11:28:36.605Z,30.48
2023-05-19T11:31:08.051Z,30.30
2023-05-19T11:33:35.742Z,29.74
2023-05-19T11:36:03.051Z,30.09
2023-05-19T11:38:30.449Z,29.65
2023-05-19T11:40:57.841Z,30.08
2023-05-19T11:43:26.232Z,30.21
2023-05-19T11:45:54.577Z,30.88
2023-05-19T11:48:22.533Z,30.98
2023-05-19T11:50:50.913Z,30.78
2023-05-19T11:53:19.718Z,30.54
2023-05-19T11:55:48.526Z,30.36
2023-05-19T11:58:16.649Z,30.08
2023-05-19T12:00:46.221Z,30.38
2023-05-19T12:03:13.835Z,30.45
2023-05-19T12:05:47.165Z,30.23
2023-05-19T12:08:14.993Z,30.12
2023-05-19T12:10:42.383Z,30.23
2023-05-19T12:13:10.173Z,29.96
2023-05-19T12:15:38.817Z,29.66
2023-05-19T12:18:06.662Z,29.67
2023-05-19T12:20:36.206Z,29.77
2023-05-19T12:23:04.229Z,30.00
2023-05-19T12:25:32.168Z,30.04
2023-05-19T12:28:00.911Z,29.76
2023-05-19T12:30:29.430Z,29.68
2023-05-19T12:32:57.891Z,29.66
2023-05-19T12:35:34.695Z,29.70
2023-05-19T12:38:06.224Z,29.74
2023-05-19T12:40:37.943Z,29.34
2023-05-19T12:43:06.648Z,29.46
2023-05-19T12:45:38.273Z,29.93
2023-05-19T12:48:06.907Z,29.46
2023-05-19T12:50:34.885Z,29.33
2023-05-19T12:53:02.360Z,29.26
2023-05-19T12:55:30.080Z,29.32
2023-05-19T12:57:58.108Z,29.67
2023-05-19T13:00:28.431Z,30.16
2023-05-19T13:03:08.801Z,29.95
2023-05-19T13:05:40.373Z,30.35
2023-05-19T13:08:09.977Z,30.32
2023-05-19T13:10:38.827Z,29.68
2023-05-19T13:13:07.353Z,29.07
2023-05-19T13:15:37.716Z,29.08
2023-05-19T13:18:07.283Z,29.03
2023-05-19T13:20:35.892Z,28.90
2023-05-19T13:23:03.737Z,29.15
2023-05-19T13:25:31.086Z,29.26
2023-05-19T13:28:01.164Z,29.60
2023-05-19T13:30:28.473Z,30.04
2023-05-19T13:32:55.853Z,30.60
2023-05-19T13:35:23.238Z,30.88
2023-05-19T13:37:50.920Z,31.04
2023-05-19T13:40:18.901Z,31.60
2023-05-19T13:42:46.456Z,31.75
2023-05-19T13:45:13.818Z,32.00
2023-05-19T13:47:41.154Z,32.14
2023-05-19T13:50:08.614Z,32.56
2023-05-19T13:52:35.889Z,32.86
2023-05-19T13:55:03.717Z,32.29
2023-05-19T13:57:30.916Z,32.45
2023-05-19T14:00:03.174Z,32.83
2023-05-19T14:02:31.280Z,32.92
2023-05-19T14:04:58.674Z,33.23
2023-05-19T14:07:26.009Z,32.99
2023-05-19T14:09:53.361Z,32.83
2023-05-19T14:12:27.841Z,32.51
2023-05-19T14:14:58.872Z,32.68
2023-05-19T14:17:27.510Z,32.39
2023-05-19T14:19:54.792Z,32.88
2023-05-19T14:22:22.009Z,33.21
2023-05-19T14:24:49.280Z,33.51
2023-05-19T14:27:16.683Z,33.50
2023-05-19T14:29:44.232Z,33.20
2023-05-19T14:32:11.643Z,33.20
2023-05-19T14:34:38.819Z,31.97
2023-05-19T14:37:06.107Z,29.55
2023-05-19T14:39:33.312Z,28.59
2023-05-19T14:42:00.880Z,28.35
2023-05-19T14:44:32.994Z,29.21
2023-05-19T14:47:01.725Z,30.56
2023-05-19T14:49:28.982Z,31.31
2023-05-19T14:51:56.312Z,31.38
2023-05-19T14:54:23.783Z,28.69
2023-05-19T14:56:51.046Z,26.47
2023-05-19T14:59:18.346Z,25.14
2023-05-19T15:01:45.793Z,25.67
2023-05-19T15:04:13.304Z,26.37
2023-05-19T15:06:41.055Z,27.30
2023-05-19T15:09:08.275Z,28.83
2023-05-19T15:11:35.504Z,29.66
2023-05-19T15:14:02.726Z,30.88
2023-05-19T15:16:30.282Z,31.63
2023-05-19T15:18:57.771Z,32.33
2023-05-19T15:21:25.000Z,32.93
2023-05-19T15:23:52.234Z,33.13
2023-05-19T15:26:19.511Z,32.58
2023-05-19T15:28:46.786Z,28.29
2023-05-19T15:31:14.145Z,25.59
2023-05-19T15:33:41.584Z,22.02
2023-05-19T15:36:08.858Z,20.90
2023-05-19T15:38:36.733Z,19.52
2023-05-19T15:41:08.105Z,17.51
2023-05-19T15:43:35.394Z,16.15
2023-05-19T15:46:04.833Z,14.84
2023-05-19T15:48:32.398Z,14.97
2023-05-19T15:50:59.802Z,17.24
2023-05-19T15:53:27.085Z,19.76
2023-05-19T15:55:54.523Z,22.20
2023-05-19T15:58:21.757Z,23.25
2023-05-19T16:00:48.979Z,23.74
2023-05-19T16:03:16.317Z,24.84
2023-05-19T16:05:43.661Z,24.67
2023-05-19T16:08:10.969Z,24.39
2023-05-19T16:10:38.187Z,25.12
2023-05-19T16:13:05.501Z,25.52
2023-05-19T16:15:32.738Z,25.60
2023-05-19T16:18:00.166Z,24.63
2023-05-19T16:20:29.660Z,24.50
2023-05-19T16:22:57.159Z,25.08
2023-05-19T16:25:24.485Z,26.16
2023-05-19T16:27:52.442Z,27.16
2023-05-19T16:30:19.807Z,28.07
2023-05-19T16:32:47.134Z,29.19
2023-05-19T16:35:14.698Z,29.77
2023-05-19T16:37:41.851Z,30.58
2023-05-19T16:40:09.446Z,31.38
2023-05-19T16:42:36.674Z,31.45
2023-05-19T16:45:04.238Z,32.11
2023-05-19T16:47:31.565Z,32.02
2023-05-19T16:49:58.909Z,32.66
2023-05-19T16:52:26.212Z,32.66
2023-05-19T16:54:53.467Z,32.63
2023-05-19T16:57:21.027Z,32.98
2023-05-19T16:59:49.578Z,33.34
2023-05-19T17:02:16.894Z,34.38
2023-05-19T17:04:44.436Z,34.58
2023-05-19T17:07:15.750Z,35.25
2023-05-19T17:09:44.048Z,35.11
2023-05-19T17:12:11.274Z,35.70
2023-05-19T17:14:38.561Z,36.18
2023-05-19T17:17:06.026Z,36.78
2023-05-19T17:19:33.543Z,37.04
2023-05-19T17:22:00.987Z,37.16
2023-05-19T17:24:33.181Z,37.39
2023-05-19T17:27:00.744Z,37.65
2023-05-19T17:29:28.031Z,37.78
2023-05-19T17:31:55.456Z,37.89
2023-05-19T17:34:22.950Z,38.36
2023-05-19T17:36:50.321Z,38.97
2023-05-19T17:39:20.040Z,38.83
2023-05-19T17:41:47.330Z,38.99
2023-05-19T17:44:15.063Z,38.95
2023-05-19T17:46:42.363Z,39.35
2023-05-19T17:49:10.773Z,39.37
2023-05-19T17:51:38.518Z,39.52
2023-05-19T17:54:06.018Z,39.87
2023-05-19T17:56:34.287Z,39.73
2023-05-19T17:59:01.807Z,39.72
2023-05-19T18:01:29.293Z,40.14
2023-05-19T18:03:56.811Z,39.96
2023-05-19T18:06:24.353Z,40.34
2023-05-19T18:08:53.302Z,40.35
2023-05-19T18:11:21.482Z,40.69
2023-05-19T18:14:12.483Z,40.95
2023-05-19T18:16:49.957Z,41.18
2023-05-19T18:19:17.595Z,41.81
2023-05-19T18:21:44.817Z,41.99
2023-05-19T18:24:12.052Z,41.94
2023-05-19T18:26:41.851Z,42.15
2023-05-19T18:29:10.192Z,42.33
2023-05-19T18:31:37.843Z,42.85
2023-05-19T18:34:05.145Z,43.47
2023-05-19T18:36:32.609Z,43.72
2023-05-19T18:39:00.192Z,43.96
2023-05-19T18:41:27.946Z,44.44
2023-05-19T18:43:55.245Z,44.76
2023-05-19T18:46:22.499Z,45.15
2023-05-19T18:48:52.990Z,45.66
2023-05-19T18:51:21.329Z,45.87
2023-05-19T18:53:51.372Z,46.17
2023-05-19T18:56:25.125Z,46.67
2023-05-19T18:58:53.016Z,47.00
2023-05-19T19:01:20.298Z,47.94
2023-05-19T19:07:47.607Z,48.97
2023-05-19T19:10:15.234Z,49.18
2023-05-19T19:12:42.552Z,49.66
2023-05-19T19:15:10.360Z,49.70
2023-05-19T19:17:39.823Z,49.94
2023-05-19T19:20:09.375Z,50.09
2023-05-19T19:22:36.831Z,50.19
2023-05-19T19:25:04.287Z,50.89
2023-05-19T19:27:31.686Z,51.28
2023-05-19T19:29:59.199Z,51.48
2023-05-19T19:32:26.428Z,51.75
2023-05-19T19:34:53.734Z,52.06
2023-05-19T19:37:21.071Z,51.97
2023-05-19T19:39:48.292Z,52.32
2023-05-19T19:42:15.527Z,52.18
2023-05-19T19:44:42.786Z,52.37
2023-05-19T19:47:10.261Z,53.00
2023-05-19T19:49:37.490Z,53.07
2023-05-19T19:52:05.126Z,53.04
2023-05-19T19:54:32.619Z,53.38
2023-05-19T19:56:59.857Z,53.81
2023-05-19T19:59:27.076Z,54.18
2023-05-19T20:01:54.386Z,54.11
2023-05-19T20:04:21.827Z,54.38
2023-05-19T20:06:49.786Z,54.48
2023-05-19T20:09:17.096Z,54.98
2023-05-19T20:11:44.418Z,55.21
2023-05-19T20:14:11.714Z,55.18
2023-05-19T20:16:40.593Z,54.89
2023-05-19T20:19:09.396Z,55.37
2023-05-19T20:21:36.810Z,55.48
2023-05-19T20:24:56.433Z,55.33
2023-05-19T20:27:23.810Z,55.64
2023-05-19T20:29:51.093Z,55.67
2023-05-19T20:32:18.370Z,56.09
2023-05-19T20:34:45.753Z,56.62
2023-05-19T20:37:13.879Z,56.67
2023-05-19T20:39:41.209Z,57.18
2023-05-19T20:42:08.680Z,56.97
2023-05-19T20:44:35.941Z,57.60
2023-05-19T20:47:04.261Z,57.49
2023-05-19T20:49:31.508Z,57.13
2023-05-19T20:51:58.765Z,57.44
2023-05-19T20:54:26.138Z,58.01
2023-05-19T20:56:53.345Z,58.11
2023-05-19T20:59:20.823Z,57.84
2023-05-19T21:01:48.187Z,58.06
2023-05-19T21:04:15.715Z,58.93
2023-05-19T21:06:43.040Z,58.89
2023-05-19T21:09:10.751Z,59.28
2023-05-19T21:11:38.083Z,59.02
2023-05-19T21:14:08.187Z,59.19
2023-05-19T21:16:38.755Z,59.65
2023-05-19T21:19:06.865Z,59.47
2023-05-19T21:21:34.349Z,60.08
2023-05-19T21:24:01.582Z,60.16
2023-05-19T21:26:28.818Z,60.19
2023-05-19T21:28:56.017Z,60.44
2023-05-19T21:31:23.308Z,60.24
2023-05-19T21:33:50.664Z,60.86
2023-05-19T21:36:18.414Z,61.14
2023-05-19T21:38:46.108Z,61.07
2023-05-19T21:41:13.355Z,61.90
2023-05-19T21:43:42.019Z,61.64
2023-05-19T21:46:09.284Z,61.89
2023-05-19T21:48:36.569Z,62.20
2023-05-19T21:51:03.899Z,62.40
2023-05-19T21:53:32.580Z,62.71
2023-05-19T21:55:59.988Z,62.91
2023-05-19T21:58:27.268Z,63.09
2023-05-19T22:00:54.579Z,63.09
2023-05-19T22:03:21.941Z,63.17
2023-05-19T22:05:53.973Z,63.60
2023-05-19T22:08:22.438Z,63.59
2023-05-19T22:10:53.387Z,63.89
2023-05-19T22:13:21.206Z,63.96
2023-05-19T22:15:48.566Z,64.23
2023-05-19T22:18:16.863Z,64.30
2023-05-19T22:20:44.097Z,64.36
2023-05-19T22:23:11.442Z,64.36
2023-05-19T22:25:38.901Z,64.26
2023-05-19T22:28:07.956Z,64.97
2023-05-19T22:30:41.119Z,64.92
2023-05-19T22:33:09.462Z,65.01
2023-05-19T22:35:36.712Z,65.16
2023-05-19T22:38:03.881Z,65.40
2023-05-19T22:40:32.625Z,65.42
2023-05-19T22:43:00.051Z,65.69
2023-05-19T22:45:27.282Z,65.75
2023-05-19T22:47:55.230Z,65.97
2023-05-19T22:50:22.862Z,66.05
2023-05-19T22:52:50.143Z,66.10
2023-05-19T22:55:17.420Z,66.34
2023-05-19T22:57:44.620Z,66.39
2023-05-19T23:00:14.307Z,66.60
2023-05-19T23:02:41.893Z,66.87
2023-05-19T23:05:09.300Z,67.06
2023-05-19T23:07:36.642Z,67.04
2023-05-19T23:10:05.990Z,67.84
2023-05-19T23:12:33.458Z,67.84
2023-05-19T23:15:01.096Z,68.15
2023-05-19T23:17:28.446Z,68.35
2023-05-19T23:19:55.913Z,68.78
2023-05-19T23:22:23.327Z,68.87
2023-05-19T23:24:50.544Z,69.56
2023-05-19T23:27:17.766Z,70.57
2023-05-19T23:29:49.198Z,69.65
2023-05-19T23:32:16.624Z,70.26
2023-05-19T23:34:43.913Z,69.92
2023-05-19T23:37:11.749Z,70.34
2023-05-19T23:39:38.934Z,70.52
2023-05-19T23:42:06.616Z,71.00
2023-05-19T23:44:33.827Z,71.44
2023-05-19T23:47:01.259Z,71.30
2023-05-19T23:49:28.621Z,71.79
2023-05-19T23:51:55.884Z,72.74
2023-05-19T23:54:23.124Z,72.13
2023-05-19T23:56:50.409Z,72.41
2023-05-19T23:59:17.679Z,72.53
